• Join FlightAware (Why Join?)
  • Login
  • US Flag 
02:09PM EDT


 

Airport Tracker/Info


-or-


 

Live Flight TrackerFlight Track Log ✈ LBQ792 ✈ 29-Apr-2013 ✈ KSYR - KROC

Flight Track Log - Related Links

Times and Time Zones

All times are in EDT time to prevent confusion due to time zone crossing. See the LBQ792 flight status page for this flight to view local times or setup timezone preferences in your user account.

Time Position Orientation Groundspeed Altitude Reporting Facility
EDT Latitude Longitude Course Direction KTS MPH feet Rate Location/Type
10:10PM 43.1211 -76.1014 19° North 141 162 1,500  Level Boston Center
10:11PM 43.1358 -76.1650 288° West 183 211 2,800 1,380 Climbing Boston Center
10:12PM 43.1442 -76.2253 281° West 163 188 4,300 1,320 Climbing Boston Center
10:13PM 43.1442 -76.2906 270° West 167 192 5,500 840 Climbing Boston Center
10:14PM 43.1375 -76.3614 263° West 189 217 6,100 240 Climbing Boston Center
10:15PM 43.1347 -76.4439 267° West 229 264 6,000 -120 Descending Boston Center
10:16PM 43.1306 -76.5092 265° West 229 264 5,900 -120 Descending Cleveland Center
10:16PM 43.1297 -76.5433 268° West 230 265 5,900  Level Cleveland Center
10:17PM 43.1306 -76.6314 271° West 231 266 5,900  Level Cleveland Center
10:18PM 43.1294 -76.7197 269° West 231 266 5,900  Level Cleveland Center
10:19PM 43.1300 -76.8050 271° West 233 268 5,900  Level Cleveland Center
10:20PM 43.1311 -76.9019 271° West 232 267 5,900  Level Cleveland Center
10:21PM 43.1317 -76.9900 271° West 232 267 5,900  Level Cleveland Center
10:22PM 43.1303 -77.0783 269° West 230 265 5,900 -120 Level Cleveland Center
10:23PM 43.1286 -77.1636 268° West 228 262 5,700 -720 Descending Cleveland Center
10:24PM 43.1253 -77.2550 267° West 235 270 4,500 -1,200 Descending Cleveland Center
10:25PM 43.1275 -77.3431 272° West 237 273 3,300 -1,080 Descending Cleveland Center
10:26PM 43.1322 -77.4311 274° West 236 272 2,400 -420 Descending Cleveland Center
10:27PM 43.1283 -77.5194 267° West 211 243 2,500 -240 Climbing Cleveland Center
10:28PM 43.1258 -77.5850 267° West 197 227 2,000 -900 Descending Cleveland Center
10:29PM 43.1256 -77.6533 270° West 151 174 800 -1,200 Descending Cleveland Center
10:31PM 43.1167 -77.6667 270° West  Level FlightAware Approximate
10:38PM 43.1191 -77.6719 270° West  Level Estimated